地図

経路データ

SID SEASON NUMBER BASIN SUBBASIN NAME ISO_TIME NATURE LAT LON WMO_WIND WMO_PRES WMO_AGENCY TRACK_TYPE DIST2LAND LANDFALL IFLAG USA_AGENCY USA_ATCF_ID USA_LAT USA_LON USA_RECORD USA_STATUS USA_WIND USA_PRES USA_SSHS USA_R34_NE USA_R34_SE USA_R34_SW USA_R34_NW USA_R50_NE USA_R50_SE USA_R50_SW USA_R50_NW USA_R64_NE USA_R64_SE USA_R64_SW USA_R64_NW USA_POCI USA_ROCI USA_RMW USA_EYE TOKYO_LAT TOKYO_LON TOKYO_GRADE TOKYO_WIND TOKYO_PRES TOKYO_R50_DIR TOKYO_R50_LONG TOKYO_R50_SHORT TOKYO_R30_DIR TOKYO_R30_LONG TOKYO_R30_SHORT TOKYO_LAND CMA_LAT CMA_LON CMA_CAT CMA_WIND CMA_PRES HKO_LAT HKO_LON HKO_CAT HKO_WIND HKO_PRES NEWDELHI_LAT NEWDELHI_LON NEWDELHI_GRADE NEWDELHI_WIND NEWDELHI_PRES NEWDELHI_CI NEWDELHI_DP NEWDELHI_POCI REUNION_LAT REUNION_LON REUNION_TYPE REUNION_WIND REUNION_PRES REUNION_TNUM REUNION_CI REUNION_RMW REUNION_R34_NE REUNION_R34_SE REUNION_R34_SW REUNION_R34_NW REUNION_R50_NE REUNION_R50_SE REUNION_R50_SW REUNION_R50_NW REUNION_R64_NE REUNION_R64_SE REUNION_R64_SW REUNION_R64_NW BOM_LAT BOM_LON BOM_TYPE BOM_WIND BOM_PRES BOM_TNUM BOM_CI BOM_RMW BOM_R34_NE BOM_R34_SE BOM_R34_SW BOM_R34_NW BOM_R50_NE BOM_R50_SE BOM_R50_SW BOM_R50_NW BOM_R64_NE BOM_R64_SE BOM_R64_SW BOM_R64_NW BOM_ROCI BOM_POCI BOM_EYE BOM_POS_METHOD BOM_PRES_METHOD NADI_LAT NADI_LON NADI_CAT NADI_WIND NADI_PRES WELLINGTON_LAT WELLINGTON_LON WELLINGTON_WIND WELLINGTON_PRES DS824_LAT DS824_LON DS824_STAGE DS824_WIND DS824_PRES TD9636_LAT TD9636_LON TD9636_STAGE TD9636_WIND TD9636_PRES TD9635_LAT TD9635_LON TD9635_WIND TD9635_PRES TD9635_ROCI NEUMANN_LAT NEUMANN_LON NEUMANN_CLASS NEUMANN_WIND NEUMANN_PRES MLC_LAT MLC_LON MLC_CLASS MLC_WIND MLC_PRES USA_GUST BOM_GUST BOM_GUST_PER REUNION_GUST REUNION_GUST_PER USA_SEAHGT USA_SEARAD_NE USA_SEARAD_SE USA_SEARAD_SW USA_SEARAD_NW STORM_SPEED STORM_DIR
1859335S14403 1860 31 SI MM NOT_NAMED 1859-11-30 18:00:00 NR -14.1000 42.8000 spur-merge 220 205 __________O___ -1 -14.1000 42.8000 7 5 218
1859335S14403 1860 31 SI MM NOT_NAMED 1859-11-30 21:00:00 NR -14.2876 42.6455 spur-merge 195 183 __________P___ -1 -14.2876 42.6455 7 5 219
1859335S14403 1860 31 SI MM NOT_NAMED 1859-12-01 00:00:00 NR -14.4701 42.4927 spur-merge 183 172 __________P___ -1 -14.4701 42.4927 7 5 219
1859335S14403 1860 31 SI MM NOT_NAMED 1859-12-01 03:00:00 NR -14.6426 42.3436 spur-merge 161 150 __________P___ -1 -14.6426 42.3436 7 4 221
1859335S14403 1860 31 SI MM NOT_NAMED 1859-12-01 06:00:00 NR -14.8000 42.2000 spur-merge 150 140 __________O___ -1 -14.8000 42.2000 7 4 222
1859335S14403 1860 31 SI MM NOT_NAMED 1859-12-01 09:00:00 NR -14.9393 42.0637 spur-merge 140 118 __________P___ -1 -14.9393 42.0637 7 4 224
1859335S14403 1860 31 SI MM NOT_NAMED 1859-12-01 12:00:00 NR -15.0650 41.9349 spur-merge 118 109 __________P___ -1 -15.0650 41.9349 7 3 225
1859335S14403 1860 31 SI MM NOT_NAMED 1859-12-01 15:00:00 NR -15.1831 41.8137 spur-merge 109 99 __________P___ -1 -15.1831 41.8137 7 3 224
1859335S14403 1860 31 SI MM NOT_NAMED 1859-12-01 18:00:00 NR -15.3000 41.7000 spur-merge 102 96 __________O___ -1 -15.3000 41.7000 7 3 221
1859335S14403 1860 31 SI MM NOT_NAMED 1859-12-01 21:00:00 NR -15.4209 41.6008 spur-merge 96 93 __________P___ -1 -15.4209 41.6008 7 3 218
1859335S14403 1860 31 SI MM NOT_NAMED 1859-12-02 00:00:00 NR -15.5424 41.5073 spur-merge 93 88 __________P___ -1 -15.5424 41.5073 7 3 217
1859335S14403 1860 31 SI MM NOT_NAMED 1859-12-02 03:00:00 NR -15.6677 41.4102 spur-merge 92 82 __________P___ -1 -15.6677 41.4102 7 3 217
1859335S14403 1860 31 SI MM NOT_NAMED 1859-12-02 06:00:00 NR -15.8000 41.3000 spur-merge 87 85 __________O___ -1 -15.8000 41.3000 7 4 221
1859335S14403 1860 31 SI MM NOT_NAMED 1859-12-02 09:00:00 NR -15.9428 41.1603 spur-merge 85 78 __________P___ -1 -15.9428 41.1603 7 4 224
1859335S14403 1860 31 SI MM NOT_NAMED 1859-12-02 12:00:00 NR -16.0925 41.0075 spur-merge 78 77 __________P___ -1 -16.0925 41.0075 7 4 224
1859335S14403 1860 31 SI MM NOT_NAMED 1859-12-02 15:00:00 NR -16.2460 40.8510 spur-merge 77 69 __________P___ -1 -16.2460 40.8510 7 4 224
1859335S14403 1860 31 SI MM NOT_NAMED 1859-12-02 18:00:00 NR -16.4000 40.7000 spur-merge 77 72 __________O___ -1 -16.4000 40.7000 7 4 222
1859335S14403 1860 31 SI MM NOT_NAMED 1859-12-02 21:00:00 NR -16.5522 40.5619 spur-merge 78 67 __________P___ -1 -16.5522 40.5619 7 4 220
1859335S14403 1860 31 SI MM NOT_NAMED 1859-12-03 00:00:00 NR -16.7025 40.4351 spur-merge 67 62 __________P___ -1 -16.7025 40.4351 7 4 218
1859335S14403 1860 31 SI MM NOT_NAMED 1859-12-03 03:00:00 NR -16.8516 40.3157 spur-merge 69 61 __________P___ -1 -16.8516 40.3157 7 4 217
1859335S14403 1860 31 SI MM NOT_NAMED 1859-12-03 06:00:00 NR -17.0000 40.2000 spur-merge 70 __________O___ -1 -17.0000 40.2000 7 4 217

IBTrACS Databaseについて

本データベースは、米国NOAAが公開する1842年以降の世界の熱帯低気圧のベストトラックデータアーカイブInternational Best Track Archive for Climate Stewardship (IBTrACS)を、ウェブで閲覧しやすい形式に変換したものです。

最終更新日:2021-11-26